Time;durP1;ratioP1;P1;durP2;ratioP2;P2;SDS_P1;SDS_P2;PMS_P1;PMS_P2;Temp;Humidity;BMP_temperature;BMP_pressure;BME280_temperature;BME280_humidity;BME280_pressure;Samples;Min_cycle;Max_cycle;Signal;HPM_P1;HPM_P2
2022/12/30 00:02:13;;;;;;;15.80;11.38;;;;;;;13.79;48.99;100525.75;5075021;28;20075;-74
2022/12/30 00:04:41;;;;;;;15.20;10.88;;;;;;;13.75;49.03;100523.28;5075283;28;20045;-75
2022/12/30 00:07:11;;;;;;;17.30;11.60;;;;;;;13.75;48.84;100520.63;5075206;28;20498;-75
2022/12/30 00:09:39;;;;;;;16.45;11.27;;;;;;;13.71;48.84;100508.41;5073688;28;20447;-75
2022/12/30 00:34:29;;;;;;;16.80;11.43;;;;;;;13.44;49.18;100535.25;5074614;28;20055;-75
2022/12/30 00:36:58;;;;;;;15.55;11.38;;;;;;;13.43;49.31;100524.66;5074295;28;20044;-75
2022/12/30 00:39:28;;;;;;;17.98;11.75;;;;;;;13.39;49.21;100523.97;5074342;28;20054;-75
2022/12/30 00:44:41;;;;;;;16.23;11.27;;;;;;;13.34;49.36;100517.22;5072731;28;20456;-74
2022/12/30 00:47:11;;;;;;;15.65;11.73;;;;;;;13.34;49.38;100535.97;5074104;28;20068;-74
2022/12/30 00:57:57;;;;;;;14.45;10.82;;;;;;;13.24;49.42;100524.16;5074061;28;20070;-75
2022/12/30 01:00:25;;;;;;;16.65;11.52;;;;;;;13.22;49.38;100528.75;5074165;28;20044;-77
2022/12/30 01:02:57;;;;;;;16.85;11.57;;;;;;;13.20;49.40;100522.63;5074142;28;20374;-74
2022/12/30 01:05:26;;;;;;;14.70;10.90;;;;;;;13.18;49.32;100522.72;5073871;28;20397;-75
2022/12/30 01:07:54;;;;;;;16.52;11.40;;;;;;;13.14;49.52;100514.03;5073826;28;20489;-76
2022/12/30 01:10:24;;;;;;;16.60;11.18;;;;;;;13.13;49.38;100506.97;5073772;28;20086;-74
2022/12/30 01:12:52;;;;;;;16.30;11.00;;;;;;;13.09;49.37;100510.78;5073309;28;20151;-74
2022/12/30 01:15:20;;;;;;;14.85;10.95;;;;;;;13.10;49.44;100515.19;5073786;28;20135;-75
2022/12/30 01:17:48;;;;;;;16.27;11.30;;;;;;;13.07;49.47;100514.53;5073864;28;20452;-75
2022/12/30 01:20:16;;;;;;;15.63;11.18;;;;;;;13.05;49.60;100511.09;5073682;28;20040;-75
2022/12/30 01:22:44;;;;;;;15.02;11.07;;;;;;;13.03;49.50;100511.22;5073669;28;20041;-75
2022/12/30 01:25:13;;;;;;;15.80;11.13;;;;;;;13.02;49.60;100506.78;5073439;28;20122;-75
2022/12/30 01:27:42;;;;;;;16.15;11.40;;;;;;;13.00;49.63;100505.19;5073572;28;20079;-75
2022/12/30 01:30:11;;;;;;;17.13;11.07;;;;;;;12.98;49.67;100504.44;5073770;28;20048;-75
2022/12/30 01:32:39;;;;;;;16.35;11.85;;;;;;;12.96;49.49;100493.81;5073333;28;20090;-75
2022/12/30 01:35:08;;;;;;;15.75;11.05;;;;;;;12.95;49.72;100497.47;5073407;28;20076;-74
2022/12/30 01:37:36;;;;;;;17.90;12.20;;;;;;;12.93;49.71;100495.81;5073329;28;20512;-74
2022/12/30 01:40:05;;;;;;;15.98;11.30;;;;;;;12.92;49.71;100499.47;5073197;28;20068;-74
2022/12/30 01:42:39;;;;;;;15.57;10.93;;;;;;;12.89;49.61;100492.50;5073243;28;20040;-75
2022/12/30 01:45:18;;;;;;;15.38;11.18;;;;;;;12.87;49.60;100495.28;5072981;28;20127;-75
2022/12/30 01:47:53;;;;;;;16.85;11.98;;;;;;;12.84;49.66;100495.50;5073065;28;20447;-75
2022/12/30 01:50:33;;;;;;;17.10;11.38;;;;;;;12.84;49.67;100494.66;5072932;28;20068;-76
2022/12/30 01:53:06;;;;;;;15.07;11.07;;;;;;;12.83;49.74;100492.91;5073148;28;20052;-76
2022/12/30 01:55:37;;;;;;;14.70;10.48;;;;;;;12.82;49.71;100496.53;5072991;28;20055;-76
2022/12/30 01:58:08;;;;;;;15.45;10.98;;;;;;;12.80;49.73;100499.31;5072977;28;20062;-76
2022/12/30 02:00:38;;;;;;;15.55;11.02;;;;;;;12.78;49.60;100484.31;5072848;28;20497;-76
2022/12/30 02:03:07;;;;;;;17.55;12.00;;;;;;;12.76;49.74;100484.44;5071575;28;20481;-76
2022/12/30 02:05:39;;;;;;;15.35;11.02;;;;;;;12.76;49.64;100486.25;5071553;28;20094;-75
2022/12/30 02:08:11;;;;;;;16.73;11.40;;;;;;;12.74;49.75;100490.81;5072655;28;20040;-76
2022/12/30 02:10:42;;;;;;;16.60;10.95;;;;;;;12.72;49.68;100484.72;5072574;28;20123;-75
2022/12/30 02:13:12;;;;;;;17.75;11.57;;;;;;;12.70;49.65;100475.94;5072562;28;20047;-75
2022/12/30 02:15:53;;;;;;;16.95;11.90;;;;;;;12.69;49.84;100482.25;5072454;28;20052;-75
2022/12/30 02:18:30;;;;;;;17.60;12.00;;;;;;;12.66;49.86;100469.09;5072658;28;20543;-76
2022/12/30 02:21:29;;;;;;;15.55;11.05;;;;;;;12.66;49.72;100474.44;5072672;28;20056;-75
2022/12/30 02:24:31;;;;;;;15.90;11.70;;;;;;;12.64;49.68;100476.31;5071871;28;20057;-75
2022/12/30 02:27:13;;;;;;;15.98;11.00;;;;;;;12.63;49.70;100478.16;5072290;28;20036;-75
2022/12/30 02:30:10;;;;;;;15.68;10.77;;;;;;;12.60;49.79;100473.84;5072267;28;20389;-75
2022/12/30 02:32:54;;;;;;;16.05;10.88;;;;;;;12.58;49.80;100478.47;5072431;28;20111;-75
2022/12/30 02:35:29;;;;;;;17.77;11.90;;;;;;;12.56;49.69;100480.38;5070946;28;20409;-75
2022/12/30 02:38:06;;;;;;;16.65;11.57;;;;;;;12.56;49.81;100479.53;5072127;28;20412;-75
2022/12/30 02:46:19;;;;;;;17.63;11.55;;;;;;;12.48;49.83;100461.28;5070682;28;20057;-76
2022/12/30 02:48:50;;;;;;;18.33;11.98;;;;;;;12.50;49.78;100466.53;5072074;28;20040;-75
2022/12/30 02:54:05;;;;;;;18.33;11.35;;;;;;;12.48;49.93;100473.81;5072127;28;20048;-76
2022/12/30 02:56:33;;;;;;;17.42;12.18;;;;;;;12.46;49.77;100473.91;5071903;28;20060;-75
2022/12/30 03:04:56;;;;;;;16.63;11.27;;;;;;;12.41;50.01;100467.97;5071877;28;20044;-76
2022/12/30 03:07:33;;;;;;;16.35;10.95;;;;;;;12.40;49.93;100474.28;5071819;28;20139;-75
2022/12/30 03:13:06;;;;;;;15.68;10.73;;;;;;;12.38;50.09;100464.66;5072068;28;20135;-75
2022/12/30 03:15:40;;;;;;;15.25;10.68;;;;;;;12.37;50.00;100474.50;5071738;28;20048;-75
2022/12/30 03:18:11;;;;;;;15.73;10.52;;;;;;;12.35;50.04;100464.81;5071835;28;20045;-74
2022/12/30 03:20:43;;;;;;;15.95;11.43;;;;;;;12.34;49.90;100469.31;5071827;28;20072;-75
2022/12/30 03:28:49;;;;;;;15.52;11.00;;;;;;;12.32;49.88;100468.56;5071848;28;20157;-75
2022/12/30 03:31:18;;;;;;;16.58;10.88;;;;;;;12.32;50.14;100468.56;5071780;28;20058;-76
2022/12/30 03:33:47;;;;;;;17.67;11.07;;;;;;;12.35;50.14;100455.00;5071922;28;20102;-76
2022/12/30 03:36:22;;;;;;;15.25;10.50;;;;;;;12.43;50.52;100457.19;5073704;28;20540;-76
2022/12/30 03:38:56;;;;;;;15.35;10.85;;;;;;;12.53;50.48;100461.81;5075766;28;20120;-75
2022/12/30 03:41:26;;;;;;;16.00;11.70;;;;;;;12.66;50.34;100463.72;5075583;28;20127;-75
2022/12/30 03:43:55;;;;;;;15.23;10.48;;;;;;;12.77;50.36;100466.56;5075561;28;20071;-76
2022/12/30 03:46:28;;;;;;;15.60;10.52;;;;;;;12.88;50.24;100469.38;5075492;28;20501;-77
2022/12/30 03:48:56;;;;;;;16.25;10.75;;;;;;;12.97;50.17;100468.75;5075514;28;20055;-75
2022/12/30 03:51:26;;;;;;;14.45;10.35;;;;;;;13.04;50.10;100455.84;5075326;28;20076;-75
2022/12/30 03:53:54;;;;;;;15.90;10.57;;;;;;;13.09;50.13;100451.88;5075253;28;20048;-75
2022/12/30 03:56:22;;;;;;;15.05;10.70;;;;;;;13.12;50.06;100450.78;5075268;28;20047;-75
2022/12/30 03:58:50;;;;;;;16.35;10.48;;;;;;;13.14;50.07;100455.09;5075133;28;20036;-75
2022/12/30 04:01:19;;;;;;;14.50;10.48;;;;;;;13.13;50.03;100453.41;5074001;28;20044;-75
2022/12/30 04:03:47;;;;;;;17.77;10.63;;;;;;;13.15;49.80;100454.16;5075083;28;20075;-75
2022/12/30 04:06:15;;;;;;;14.85;10.60;;;;;;;13.14;50.03;100460.47;5075060;28;20484;-75
2022/12/30 04:08:45;;;;;;;16.33;10.85;;;;;;;13.14;49.86;100454.25;5074962;28;20045;-76
2022/12/30 04:11:13;;;;;;;15.80;10.05;;;;;;;13.12;50.02;100453.47;5074908;28;20048;-75
2022/12/30 04:13:41;;;;;;;15.52;10.52;;;;;;;13.12;50.04;100462.41;5073630;28;20476;-75
2022/12/30 04:16:10;;;;;;;16.23;10.98;;;;;;;13.10;49.92;100453.59;5075005;28;20040;-75
2022/12/30 04:18:38;;;;;;;15.77;10.77;;;;;;;13.09;49.96;100457.22;5074613;28;20055;-75
2022/12/30 04:21:06;;;;;;;16.45;11.57;;;;;;;13.07;50.11;100464.50;5074756;28;20090;-75
2022/12/30 04:23:34;;;;;;;15.40;10.18;;;;;;;13.05;50.09;100457.56;5074866;28;20041;-75
2022/12/30 04:26:04;;;;;;;16.23;10.55;;;;;;;13.01;49.97;100456.88;5074744;28;20382;-75
2022/12/30 04:28:32;;;;;;;17.92;10.85;;;;;;;13.01;50.04;100469.41;5074569;28;20468;-75
2022/12/30 04:31:00;;;;;;;16.55;11.10;;;;;;;12.99;49.94;100472.19;5074399;28;20050;-75
2022/12/30 04:33:28;;;;;;;17.13;11.13;;;;;;;12.97;49.91;100463.41;5074581;28;20118;-75
2022/12/30 04:35:57;;;;;;;16.75;11.15;;;;;;;12.96;50.17;100472.41;5074539;28;20401;-75
2022/12/30 04:38:25;;;;;;;14.95;10.38;;;;;;;12.95;50.24;100469.84;5074395;28;20040;-75
2022/12/30 04:40:53;;;;;;;15.55;10.23;;;;;;;12.98;50.03;100465.13;5074310;28;20044;-75
2022/12/30 04:43:23;;;;;;;14.93;10.13;;;;;;;13.05;50.31;100474.47;5074233;28;20101;-75
2022/12/30 04:45:51;;;;;;;14.38;9.50;;;;;;;13.13;50.19;100473.97;5074132;28;20497;-75
2022/12/30 04:48:19;;;;;;;14.70;10.10;;;;;;;13.22;50.11;100477.84;5073323;28;20128;-76
2022/12/30 04:50:49;;;;;;;16.33;10.52;;;;;;;13.32;49.97;100484.34;5074137;28;20056;-75
2022/12/30 04:53:17;;;;;;;15.48;10.13;;;;;;;13.43;50.01;100473.75;5074121;28;20045;-75
2022/12/30 04:55:45;;;;;;;16.42;10.70;;;;;;;13.52;49.96;100474.94;5074100;28;20410;-76
2022/12/30 04:58:13;;;;;;;16.85;10.82;;;;;;;13.62;49.86;100476.88;5073945;28;20045;-75
2022/12/30 05:00:42;;;;;;;15.73;10.02;;;;;;;13.75;49.90;100471.50;5074076;28;20119;-75
2022/12/30 05:03:11;;;;;;;15.20;9.95;;;;;;;13.84;49.51;100475.38;5072811;28;20747;-74
2022/12/30 05:05:39;;;;;;;15.70;10.15;;;;;;;13.90;49.69;100472.25;5074034;28;20404;-74
2022/12/30 05:08:07;;;;;;;15.88;10.07;;;;;;;14.01;49.53;100475.91;5073943;28;20412;-74
2022/12/30 05:10:36;;;;;;;15.20;10.30;;;;;;;14.10;49.47;100477.06;5073728;28;20055;-74
2022/12/30 05:13:04;;;;;;;14.52;10.23;;;;;;;14.18;49.34;100469.31;5072557;28;20496;-74
2022/12/30 05:15:33;;;;;;;16.27;10.68;;;;;;;14.25;49.12;100475.94;5073749;28;20045;-74
2022/12/30 05:18:02;;;;;;;14.35;9.68;;;;;;;14.34;49.35;100474.44;5073581;28;20117;-74
2022/12/30 05:20:30;;;;;;;15.77;10.38;;;;;;;14.44;49.24;100472.81;5072391;28;20064;-74
2022/12/30 05:22:59;;;;;;;15.68;10.20;;;;;;;14.54;49.11;100476.56;5073464;28;20053;-74
2022/12/30 05:28:12;;;;;;;14.43;9.88;;;;;;;14.75;48.95;100479.50;5072029;28;20536;-74
2022/12/30 05:30:40;;;;;;;16.38;10.25;;;;;;;14.83;48.79;100487.84;5073446;28;20041;-74
2022/12/30 05:33:10;;;;;;;15.82;9.73;;;;;;;14.93;48.70;100484.47;5073354;28;20110;-74
2022/12/30 05:35:38;;;;;;;14.40;9.52;;;;;;;15.02;48.70;100494.53;5073344;28;20045;-74
2022/12/30 05:38:06;;;;;;;14.98;9.85;;;;;;;15.06;48.53;100488.84;5073114;28;20590;-75
2022/12/30 05:40:34;;;;;;;16.80;10.88;;;;;;;15.08;48.88;100489.56;5073161;28;20067;-75
2022/12/30 05:43:02;;;;;;;15.73;10.35;;;;;;;15.11;48.46;100491.16;5073073;28;20048;-75
2022/12/30 05:45:31;;;;;;;16.70;10.70;;;;;;;15.12;48.55;100490.19;5073123;28;20063;-76
2022/12/30 05:47:59;;;;;;;14.60;9.32;;;;;;;15.11;48.63;100501.91;5073148;28;20090;-75
2022/12/30 05:50:29;;;;;;;17.20;10.48;;;;;;;15.06;48.63;100491.50;5072931;28;20060;-75
2022/12/30 05:52:57;;;;;;;16.63;10.63;;;;;;;15.04;48.62;100490.75;5073104;28;20078;-73
2022/12/30 05:55:25;;;;;;;19.60;11.13;;;;;;;15.01;48.62;100499.03;5072830;28;20105;-74
2022/12/30 05:57:59;;;;;;;15.30;9.82;;;;;;;14.97;48.70;100499.41;5072745;28;20044;-73
2022/12/30 06:00:27;;;;;;;15.35;10.27;;;;;;;14.92;48.69;100507.78;5072787;28;20052;-73
2022/12/30 06:02:55;;;;;;;17.70;10.77;;;;;;;14.86;48.77;100503.75;5072650;28;20045;-73
2022/12/30 06:05:23;;;;;;;17.05;10.73;;;;;;;14.83;48.92;100506.63;5072593;28;20040;-73
2022/12/30 06:07:53;;;;;;;17.60;11.48;;;;;;;14.78;48.88;100506.13;5072591;28;20059;-73
2022/12/30 06:10:22;;;;;;;17.10;10.80;;;;;;;14.73;48.85;100508.28;5072662;28;20120;-74
2022/12/30 06:12:50;;;;;;;18.13;11.02;;;;;;;14.69;48.96;100517.56;5071318;28;20169;-73
2022/12/30 06:15:18;;;;;;;15.05;10.10;;;;;;;14.65;48.91;100513.34;5072448;28;20073;-74
2022/12/30 06:17:46;;;;;;;15.15;10.20;;;;;;;14.59;49.17;100528.09;5072396;28;20052;-73
2022/12/30 06:20:15;;;;;;;16.42;11.13;;;;;;;14.55;48.97;100526.59;5072429;28;20041;-74
2022/12/30 06:22:43;;;;;;;15.73;9.93;;;;;;;14.52;49.08;100528.66;5072348;28;20044;-74
2022/12/30 06:25:12;;;;;;;17.33;11.13;;;;;;;14.46;49.02;100537.13;5072482;28;20048;-74
2022/12/30 06:27:40;;;;;;;19.88;11.52;;;;;;;14.42;48.96;100531.09;5072325;28;20728;-74
2022/12/30 06:30:10;;;;;;;16.33;11.32;;;;;;;14.40;48.91;100540.25;5072299;28;20067;-74
2022/12/30 06:32:38;;;;;;;17.13;10.63;;;;;;;14.35;48.89;100537.00;5072207;28;20048;-74
2022/12/30 06:35:07;;;;;;;17.15;11.07;;;;;;;14.30;49.11;100535.53;5072243;28;20044;-74
2022/12/30 06:37:35;;;;;;;18.33;11.13;;;;;;;14.25;49.06;100537.66;5072185;28;20052;-74
2022/12/30 06:40:04;;;;;;;18.80;11.18;;;;;;;14.22;49.13;100535.22;5071962;28;20633;-74
2022/12/30 06:42:33;;;;;;;17.58;11.25;;;;;;;14.18;49.16;100533.69;5072109;28;20049;-73
2022/12/30 06:45:02;;;;;;;21.20;11.73;;;;;;;14.15;49.08;100539.28;5072155;28;20052;-73
2022/12/30 06:47:31;;;;;;;17.48;11.35;;;;;;;14.11;48.98;100542.31;5072131;28;20397;-73
2022/12/30 06:49:59;;;;;;;18.52;11.38;;;;;;;14.07;49.04;100540.78;5071941;28;20405;-74
2022/12/30 06:52:27;;;;;;;16.45;11.07;;;;;;;14.02;49.28;100550.03;5071858;28;20044;-74
2022/12/30 06:54:55;;;;;;;18.15;11.57;;;;;;;13.97;49.11;100546.78;5071990;28;20097;-74
2022/12/30 06:57:26;;;;;;;18.42;11.73;;;;;;;13.95;49.20;100554.09;5071800;28;20048;-73
2022/12/30 06:59:55;;;;;;;18.30;11.68;;;;;;;13.90;49.14;100555.38;5071724;28;20095;-74
2022/12/30 07:02:23;;;;;;;19.40;11.60;;;;;;;13.88;49.20;100551.94;5071993;28;20049;-74
2022/12/30 07:04:52;;;;;;;21.13;12.02;;;;;;;13.84;49.13;100553.13;5071844;28;20044;-74
2022/12/30 07:07:20;;;;;;;20.23;11.75;;;;;;;13.80;49.22;100557.84;5071795;28;20045;-73
2022/12/30 07:09:48;;;;;;;20.33;11.48;;;;;;;13.78;49.19;100564.25;5071480;28;20134;-73
2022/12/30 07:12:17;;;;;;;19.65;11.43;;;;;;;13.73;49.42;100569.94;5071846;28;20071;-73
2022/12/30 07:14:46;;;;;;;20.60;12.32;;;;;;;13.72;49.24;100573.59;5071811;28;20067;-73
2022/12/30 07:17:15;;;;;;;17.95;11.65;;;;;;;13.70;49.38;100586.22;5071801;28;20090;-73
2022/12/30 07:19:46;;;;;;;17.75;11.27;;;;;;;13.69;49.47;100587.19;5071826;28;20044;-73
2022/12/30 07:22:15;;;;;;;19.00;12.35;;;;;;;13.72;49.60;100579.81;5071776;28;20052;-74
2022/12/30 07:24:44;;;;;;;19.20;12.23;;;;;;;13.81;49.70;100589.06;5071764;28;20466;-74
2022/12/30 07:27:12;;;;;;;18.67;11.68;;;;;;;13.89;49.61;100586.69;5071705;28;20098;-74
2022/12/30 07:29:41;;;;;;;16.00;10.82;;;;;;;14.00;49.51;100597.56;5071779;28;20051;-74
2022/12/30 07:32:10;;;;;;;18.60;11.35;;;;;;;14.10;49.25;100603.13;5071708;28;20518;-73
2022/12/30 07:34:40;;;;;;;19.00;11.63;;;;;;;14.17;49.43;100593.69;5071434;28;20048;-74
2022/12/30 07:37:11;;;;;;;18.97;11.77;;;;;;;14.27;49.31;100605.47;5071528;28;20051;-74
2022/12/30 07:39:39;;;;;;;18.77;11.18;;;;;;;14.38;49.32;100603.88;5071446;28;20057;-73
2022/12/30 07:42:09;;;;;;;19.05;11.93;;;;;;;14.46;49.10;100607.75;5071544;28;20051;-74
2022/12/30 07:44:37;;;;;;;18.73;11.25;;;;;;;14.55;49.03;100609.81;5071447;28;20425;-73
2022/12/30 07:47:06;;;;;;;19.00;10.85;;;;;;;14.66;48.97;100613.53;5071311;28;20123;-75
2022/12/30 07:49:34;;;;;;;19.30;11.38;;;;;;;14.73;48.89;100607.63;5071300;28;20124;-75
2022/12/30 07:52:05;;;;;;;20.17;12.30;;;;;;;14.79;48.85;100619.78;5071449;28;20508;-74
2022/12/30 07:54:33;;;;;;;19.23;11.52;;;;;;;14.84;48.76;100618.44;5071438;28;20048;-74
2022/12/30 07:57:01;;;;;;;18.38;11.88;;;;;;;14.85;48.75;100622.00;5071380;28;20497;-74
2022/12/30 07:59:30;;;;;;;19.17;10.80;;;;;;;14.88;48.73;100614.59;5071388;28;20041;-74
2022/12/30 08:01:58;;;;;;;21.85;12.00;;;;;;;14.88;48.85;100622.66;5071425;28;20097;-77
2022/12/30 08:04:26;;;;;;;19.75;11.85;;;;;;;14.87;48.85;100618.25;5071199;28;20044;-73
2022/12/30 08:07:17;;;;;;;21.50;11.68;;;;;;;14.86;48.88;100626.41;5071478;28;20072;-77
2022/12/30 08:09:45;;;;;;;21.33;12.00;;;;;;;14.83;48.93;100626.63;5071183;28;20040;-74
2022/12/30 08:12:13;;;;;;;19.33;11.82;;;;;;;14.80;48.85;100633.09;5071172;28;20044;-74
2022/12/30 08:14:42;;;;;;;21.30;12.30;;;;;;;14.77;48.94;100633.31;5071083;28;20098;-74
2022/12/30 08:17:10;;;;;;;19.23;11.73;;;;;;;14.74;48.91;100638.88;5071172;28;20378;-75
2022/12/30 08:19:38;;;;;;;19.98;11.65;;;;;;;14.69;49.05;100643.75;5071117;28;20126;-74
2022/12/30 08:22:06;;;;;;;22.05;12.13;;;;;;;14.67;49.37;100642.09;5070081;28;20118;-76
2022/12/30 08:24:35;;;;;;;19.00;11.90;;;;;;;14.66;49.30;100652.00;5074621;28;20464;-76
2022/12/30 08:27:04;;;;;;;19.55;12.07;;;;;;;14.61;49.30;100643.41;5073329;28;20048;-76
2022/12/30 08:29:32;;;;;;;20.52;11.63;;;;;;;14.58;49.24;100643.66;5074417;28;20045;-76
2022/12/30 08:32:00;;;;;;;19.98;11.68;;;;;;;14.54;49.35;100636.75;5074589;28;20119;-76
2022/12/30 08:34:28;;;;;;;20.75;12.52;;;;;;;14.49;49.36;100622.81;5074464;28;20036;-76
2022/12/30 08:36:57;;;;;;;18.60;11.40;;;;;;;14.47;49.26;100624.72;5073221;28;20049;-77
2022/12/30 08:39:25;;;;;;;20.80;12.02;;;;;;;14.43;49.34;100623.22;5073248;28;20049;-76
2022/12/30 08:41:55;;;;;;;19.67;11.82;;;;;;;14.40;49.23;100634.16;5074573;28;20048;-76
2022/12/30 08:44:25;;;;;;;21.02;12.30;;;;;;;14.37;49.51;100629.00;5074612;28;20417;-76
2022/12/30 08:46:54;;;;;;;22.38;12.55;;;;;;;14.33;49.30;100633.72;5073118;28;20136;-76
2022/12/30 08:49:22;;;;;;;20.60;12.40;;;;;;;14.30;49.30;100642.00;5073148;28;20049;-76
2022/12/30 08:51:51;;;;;;;22.15;12.43;;;;;;;14.26;49.18;100654.75;5074433;28;20516;-77
2022/12/30 08:54:19;;;;;;;20.80;12.38;;;;;;;14.23;49.40;100654.97;5074028;28;20119;-78
2022/12/30 08:56:48;;;;;;;22.70;12.98;;;;;;;14.19;49.29;100649.94;5074045;28;20044;-77
2022/12/30 08:59:18;;;;;;;20.35;12.18;;;;;;;14.18;49.49;100657.09;5072892;28;20040;-77
2022/12/30 09:01:46;;;;;;;22.10;13.25;;;;;;;14.15;49.34;100657.31;5074231;28;20048;-76
2022/12/30 09:04:14;;;;;;;23.85;13.18;;;;;;;14.11;49.32;100655.81;5074254;28;20051;-76
2022/12/30 09:06:43;;;;;;;21.50;12.93;;;;;;;14.08;49.43;100656.00;5072884;28;20055;-76
2022/12/30 09:09:14;;;;;;;20.65;13.02;;;;;;;14.05;49.49;100650.88;5073806;28;20044;-76
2022/12/30 09:11:43;;;;;;;24.27;13.75;;;;;;;14.02;49.52;100654.63;5073807;28;20064;-77
2022/12/30 09:14:13;;;;;;;22.95;12.73;;;;;;;14.00;49.53;100650.34;5073781;28;20444;-75
2022/12/30 09:16:43;;;;;;;21.17;12.30;;;;;;;13.97;49.56;100653.19;5072477;28;20501;-76
2022/12/30 09:19:11;;;;;;;21.85;12.55;;;;;;;13.93;49.71;100646.34;5073681;28;20123;-75
2022/12/30 09:21:48;;;;;;;22.80;13.90;;;;;;;13.91;49.53;100643.78;5072148;28;20068;-76
2022/12/30 09:24:16;;;;;;;22.42;12.60;;;;;;;13.88;49.51;100648.47;5073486;28;20072;-75
2022/12/30 09:26:47;;;;;;;24.40;13.52;;;;;;;13.86;49.46;100653.94;5073626;28;20205;-74
2022/12/30 09:29:17;;;;;;;22.83;12.80;;;;;;;13.84;49.40;100663.06;5073450;28;20046;-75
2022/12/30 09:31:46;;;;;;;25.00;13.23;;;;;;;13.81;49.69;100664.13;5073572;28;20068;-75
2022/12/30 09:34:14;;;;;;;23.67;12.95;;;;;;;13.80;49.62;100672.25;5071550;28;20051;-75
2022/12/30 09:36:43;;;;;;;23.33;13.45;;;;;;;13.77;49.72;100659.06;5073321;28;20048;-74
2022/12/30 09:39:14;;;;;;;23.13;12.60;;;;;;;13.75;49.67;100664.53;5071871;28;20508;-74
2022/12/30 09:44:58;;;;;;;22.10;13.57;;;;;;;13.69;49.86;100657.75;5072866;28;20094;-75
2022/12/30 09:47:30;;;;;;;24.40;12.68;;;;;;;13.67;49.89;100653.44;5073105;28;20047;-75
2022/12/30 09:50:02;;;;;;;22.33;12.77;;;;;;;13.64;49.87;100649.16;5073087;28;20053;-75
2022/12/30 09:52:34;;;;;;;22.52;12.85;;;;;;;13.60;50.02;100644.94;5072828;28;20068;-75
2022/12/30 09:55:07;;;;;;;20.35;12.75;;;;;;;13.60;49.96;100655.66;5072950;28;20041;-77
2022/12/30 09:57:37;;;;;;;25.98;13.35;;;;;;;13.58;50.08;100662.94;5072914;28;20402;-75
2022/12/30 10:00:12;;;;;;;24.90;14.15;;;;;;;13.56;50.09;100656.84;5073182;28;20040;-75
2022/12/30 10:03:01;;;;;;;22.45;12.75;;;;;;;13.52;49.89;100655.34;5071340;28;20098;-75
2022/12/30 10:06:03;;;;;;;22.85;12.77;;;;;;;13.52;49.99;100658.03;5072692;28;20106;-75
2022/12/30 10:08:46;;;;;;;21.67;12.95;;;;;;;13.50;50.01;100659.91;5072521;28;20044;-77
2022/12/30 10:11:26;;;;;;;23.08;12.50;;;;;;;13.48;50.17;100659.16;5072730;28;20050;-77
2022/12/30 10:14:08;;;;;;;20.65;12.63;;;;;;;13.45;50.01;100652.19;5071226;28;20719;-75
2022/12/30 10:16:53;;;;;;;24.33;12.95;;;;;;;13.43;50.33;100659.47;5072489;28;20048;-75
2022/12/30 10:19:33;;;;;;;22.15;12.82;;;;;;;13.43;50.15;100647.91;5072288;28;20094;-75
2022/12/30 10:22:08;;;;;;;22.05;13.23;;;;;;;13.41;50.17;100644.44;5072106;28;20045;-73
2022/12/30 10:24:49;;;;;;;22.00;12.85;;;;;;;13.38;50.19;100650.00;5069658;28;20068;-78
2022/12/30 10:27:20;;;;;;;21.67;13.57;;;;;;;13.38;50.29;100644.66;5071417;28;20048;-77
2022/12/30 10:29:49;;;;;;;22.58;13.45;;;;;;;13.36;50.34;100643.91;5069304;28;20090;-77
2022/12/30 10:32:29;;;;;;;22.65;12.80;;;;;;;13.32;50.43;100637.03;5070652;28;20049;-77
2022/12/30 10:35:03;;;;;;;21.83;12.98;;;;;;;13.34;50.44;100645.81;5070456;28;20535;-76
2022/12/30 10:37:33;;;;;;;22.58;12.85;;;;;;;13.33;50.52;100649.47;5072164;28;20528;-76
2022/12/30 10:40:09;;;;;;;23.50;13.10;;;;;;;13.31;50.57;100648.69;5072590;28;20106;-77
2022/12/30 10:43:15;;;;;;;25.50;13.82;;;;;;;13.29;50.42;100648.78;5072010;28;20044;-77
2022/12/30 10:45:56;;;;;;;23.90;13.13;;;;;;;13.26;50.53;100645.47;5071188;28;20489;-77
2022/12/30 10:48:36;;;;;;;23.70;14.10;;;;;;;13.25;50.84;100644.59;5072137;28;20051;-77
2022/12/30 10:51:07;;;;;;;24.35;13.63;;;;;;;13.23;50.46;100637.63;5072105;28;20044;-76
2022/12/30 10:53:35;;;;;;;21.25;13.23;;;;;;;13.23;50.59;100641.16;5070595;28;20048;-76
2022/12/30 10:56:12;;;;;;;25.38;13.73;;;;;;;13.22;50.56;100649.28;5070713;28;20308;-78
2022/12/30 10:58:43;;;;;;;23.45;13.45;;;;;;;13.21;50.57;100645.75;5071902;28;20044;-76
2022/12/30 11:01:15;;;;;;;23.23;13.73;;;;;;;13.20;50.69;100651.22;5070614;28;20052;-75
2022/12/30 11:03:48;;;;;;;25.77;14.20;;;;;;;13.18;50.60;100651.28;5071916;28;20071;-75
2022/12/30 11:06:24;;;;;;;24.83;14.05;;;;;;;13.17;50.62;100645.06;5072146;28;20489;-77
2022/12/30 11:08:55;;;;;;;21.38;12.45;;;;;;;13.16;50.76;100651.38;5072135;28;20075;-77
2022/12/30 11:14:42;;;;;;;23.20;13.13;;;;;;;13.15;50.69;100644.31;5072056;28;20048;-78
2022/12/30 11:14:42;;;;;;;22.33;12.82;;;;;;;13.14;50.67;100637.22;5070494;28;20139;-76
2022/12/30 11:17:21;;;;;;;23.05;12.23;;;;;;;13.14;50.73;100636.38;5071823;28;20044;-78
2022/12/30 11:19:50;;;;;;;24.33;12.85;;;;;;;13.12;50.69;100635.59;5071683;28;20041;-79
2022/12/30 11:22:21;;;;;;;23.20;13.10;;;;;;;13.11;50.75;100632.06;5070376;28;20124;-76
2022/12/30 11:24:58;;;;;;;23.95;13.95;;;;;;;13.12;50.74;100632.91;5071786;28;20040;-78
2022/12/30 11:27:32;;;;;;;22.45;12.88;;;;;;;13.09;50.88;100623.25;5071829;28;20048;-77
2022/12/30 11:30:01;;;;;;;23.35;13.20;;;;;;;13.10;50.91;100624.13;5071721;28;20048;-76
2022/12/30 11:32:30;;;;;;;24.23;12.75;;;;;;;13.10;50.96;100626.81;5071662;28;20063;-77
2022/12/30 11:34:58;;;;;;;24.75;13.93;;;;;;;13.08;50.94;100626.91;5070381;28;20055;-77
2022/12/30 11:37:34;;;;;;;23.60;13.18;;;;;;;13.09;51.09;100627.75;5071445;28;20478;-77
2022/12/30 11:40:29;;;;;;;21.95;13.20;;;;;;;13.08;50.92;100636.75;5070161;28;20051;-76
2022/12/30 11:43:21;;;;;;;26.35;13.75;;;;;;;13.08;51.05;100640.28;5071544;28;20482;-77
2022/12/30 11:45:56;;;;;;;22.40;12.73;;;;;;;13.08;50.92;100632.25;5056863;28;20128;-76
2022/12/30 11:48:33;;;;;;;22.63;12.82;;;;;;;13.08;50.84;100634.94;5070099;28;20044;-76
2022/12/30 11:51:04;;;;;;;22.75;13.02;;;;;;;13.15;51.22;100630.06;5071599;28;20044;-78
2022/12/30 11:53:37;;;;;;;23.98;13.07;;;;;;;13.23;51.34;100634.97;5071383;28;20048;-77
2022/12/30 11:56:06;;;;;;;20.13;12.23;;;;;;;13.34;51.32;100635.09;5071389;28;20048;-78
2022/12/30 11:58:36;;;;;;;23.77;12.82;;;;;;;13.48;51.25;100637.72;5075180;28;20044;-76
2022/12/30 12:01:10;;;;;;;25.37;12.83;;;;;;;13.60;51.07;100655.66;5075102;28;20052;-75
2022/12/30 12:03:49;;;;;;;25.00;13.63;;;;;;;13.72;50.85;100657.56;5075091;28;20045;-76
2022/12/30 12:06:17;;;;;;;21.15;12.27;;;;;;;13.85;50.67;100657.59;5075370;28;20060;-77
2022/12/30 12:08:55;;;;;;;20.63;12.38;;;;;;;13.97;50.85;100662.09;5074888;28;20048;-76
2022/12/30 12:11:26;;;;;;;22.55;12.75;;;;;;;14.08;50.56;100664.06;5075191;28;20057;-76
2022/12/30 12:14:05;;;;;;;22.23;12.75;;;;;;;14.18;50.47;100662.47;5074893;28;20044;-77
2022/12/30 12:16:43;;;;;;;24.02;13.68;;;;;;;14.24;50.47;100661.19;5075307;28;20048;-77
2022/12/30 12:19:19;;;;;;;24.52;13.05;;;;;;;14.29;50.47;100667.13;5073497;28;20071;-76
2022/12/30 12:21:51;;;;;;;21.75;12.73;;;;;;;14.35;50.37;100668.50;5074900;28;20049;-75
2022/12/30 12:24:26;;;;;;;22.23;12.63;;;;;;;14.36;50.34;100672.91;5074839;28;20051;-73
2022/12/30 12:27:01;;;;;;;21.65;12.93;;;;;;;14.35;50.47;100669.34;5074651;28;20485;-75
2022/12/30 12:29:30;;;;;;;24.02;13.18;;;;;;;14.36;50.44;100671.06;5074782;28;20045;-82
2022/12/30 12:32:30;;;;;;;22.23;12.27;;;;;;;14.36;50.39;100662.16;5070453;28;20052;-78